Time;durP1;ratioP1;P1;durP2;ratioP2;P2;SDS_P1;SDS_P2;PMS_P1;PMS_P2;Temp;Humidity;BMP_temperature;BMP_pressure;BME280_temperature;BME280_humidity;BME280_pressure;Samples;Min_cycle;Max_cycle;Signal;HPM_P1;HPM_P2
2023/11/02 00:01:52;;;;;;;1.10;0.87;;;20.50;80.10;;;;;;5054131;28;20441;-86
2023/11/02 00:04:19;;;;;;;1.30;0.90;;;20.50;80.10;;;;;;5054284;28;20804;-86
2023/11/02 00:06:49;;;;;;;1.20;0.80;;;20.50;80.10;;;;;;5053553;28;20488;-86
2023/11/02 00:09:35;;;;;;;1.10;0.70;;;20.50;80.10;;;;;;5053338;28;20499;-86
2023/11/02 00:12:05;;;;;;;0.90;0.60;;;20.60;80.30;;;;;;5053692;28;20488;-86
2023/11/02 00:14:44;;;;;;;1.37;0.90;;;20.50;80.10;;;;;;5053688;28;20457;-86
2023/11/02 00:17:29;;;;;;;1.27;0.73;;;20.60;80.20;;;;;;5053935;28;20437;-86
2023/11/02 00:19:56;;;;;;;1.30;0.83;;;20.50;80.20;;;;;;5052980;28;20947;-86
2023/11/02 00:22:23;;;;;;;1.00;0.70;;;20.50;80.10;;;;;;5053853;28;20439;-86
2023/11/02 00:24:51;;;;;;;1.57;0.80;;;20.50;80.10;;;;;;5053586;28;20442;-86
2023/11/02 00:27:19;;;;;;;1.10;0.80;;;20.50;80.10;;;;;;5053630;28;20480;-86
2023/11/02 00:29:46;;;;;;;1.10;0.70;;;20.50;80.00;;;;;;5053539;28;20445;-86
2023/11/02 00:32:14;;;;;;;1.30;0.87;;;20.50;80.00;;;;;;5053641;28;20488;-96
2023/11/02 00:34:41;;;;;;;1.07;0.87;;;20.50;80.00;;;;;;5053476;28;20444;-86
2023/11/02 00:37:08;;;;;;;1.07;0.80;;;20.50;80.10;;;;;;5053665;28;20448;-86
2023/11/02 00:39:35;;;;;;;1.13;0.87;;;20.50;80.00;;;;;;5053156;28;20448;-86
2023/11/02 00:42:01;;;;;;;1.10;0.80;;;20.50;80.00;;;;;;5053381;28;20437;-86
2023/11/02 00:44:29;;;;;;;1.10;0.70;;;20.40;79.80;;;;;;5053282;28;21042;-86
2023/11/02 00:46:57;;;;;;;1.03;0.77;;;20.40;79.80;;;;;;5053265;28;20440;-86
2023/11/02 00:49:28;;;;;;;1.63;0.97;;;20.40;79.80;;;;;;5053322;28;20575;-86
2023/11/02 00:51:56;;;;;;;1.10;0.80;;;20.40;79.80;;;;;;5053141;28;20451;-86
2023/11/02 00:54:56;;;;;;;1.40;1.10;;;20.40;79.80;;;;;;5053147;28;20451;-86
2023/11/02 00:57:27;;;;;;;1.80;0.70;;;20.40;79.70;;;;;;5053349;28;20767;-86
2023/11/02 00:59:56;;;;;;;1.30;0.80;;;20.40;79.80;;;;;;5053105;28;20438;-86
2023/11/02 01:02:23;;;;;;;1.30;0.80;;;20.40;79.80;;;;;;5053119;28;20447;-86
2023/11/02 01:04:55;;;;;;;1.23;0.80;;;20.40;79.80;;;;;;5053103;28;20449;-86
2023/11/02 01:07:22;;;;;;;1.70;0.80;;;20.40;79.70;;;;;;5053071;28;20433;-86
2023/11/02 01:09:57;;;;;;;1.10;0.80;;;20.40;79.70;;;;;;5053009;28;20572;-86
2023/11/02 01:12:28;;;;;;;1.10;0.80;;;20.40;79.70;;;;;;5052875;28;20982;-91
2023/11/02 01:14:56;;;;;;;1.10;0.90;;;20.40;79.80;;;;;;5053140;28;20440;-86
2023/11/02 01:17:31;;;;;;;1.90;0.80;;;20.40;79.60;;;;;;5052887;28;20441;-86
2023/11/02 01:20:08;;;;;;;1.10;0.70;;;20.40;80.40;;;;;;5056114;28;20490;-86
2023/11/02 01:22:50;;;;;;;1.10;0.80;;;20.40;79.60;;;;;;5057125;28;20436;-87
2023/11/02 01:25:17;;;;;;;1.03;0.80;;;20.40;79.70;;;;;;5057030;28;20494;-86
2023/11/02 01:27:44;;;;;;;1.33;0.80;;;20.40;79.60;;;;;;5056953;28;20431;-86
2023/11/02 01:30:53;;;;;;;1.10;0.90;;;20.40;79.60;;;;;;5056903;28;20450;-86
2023/11/02 01:34:00;;;;;;;1.30;0.90;;;20.40;79.50;;;;;;5057200;28;20449;-86
2023/11/02 01:36:38;;;;;;;1.37;0.80;;;20.40;79.50;;;;;;5056947;28;20535;-86
2023/11/02 01:39:38;;;;;;;1.20;0.90;;;20.40;79.60;;;;;;5056650;28;20439;-86
2023/11/02 01:42:11;;;;;;;1.00;0.73;;;20.40;79.60;;;;;;5051611;28;20449;-86
2023/11/02 01:44:42;;;;;;;1.00;0.70;;;20.40;79.70;;;;;;5056575;28;20526;-86
2023/11/02 01:47:24;;;;;;;0.90;0.70;;;20.40;79.70;;;;;;5056709;28;20437;-86
2023/11/02 01:49:59;;;;;;;1.00;0.73;;;20.40;79.70;;;;;;5056479;28;21043;-86
2023/11/02 01:52:58;;;;;;;1.10;0.90;;;20.40;79.70;;;;;;5056696;28;20778;-86
2023/11/02 01:55:46;;;;;;;1.40;0.80;;;20.40;79.70;;;;;;5053558;28;20448;-86
2023/11/02 01:58:21;;;;;;;1.20;0.70;;;20.30;79.60;;;;;;5056618;28;20433;-86
2023/11/02 02:00:51;;;;;;;1.00;0.70;;;20.40;79.80;;;;;;5056305;28;20442;-86
2023/11/02 02:03:27;;;;;;;1.10;0.80;;;20.40;79.70;;;;;;5056430;28;20763;-86
2023/11/02 02:06:03;;;;;;;1.00;0.80;;;20.30;79.60;;;;;;5056224;28;20427;-86
2023/11/02 02:08:44;;;;;;;1.00;0.70;;;20.40;79.70;;;;;;5056256;28;20490;-86
2023/11/02 02:11:28;;;;;;;1.20;0.93;;;20.40;79.70;;;;;;5056404;28;20472;-86
2023/11/02 02:14:04;;;;;;;1.00;0.80;;;20.40;79.70;;;;;;5016493;28;20551;-86
2023/11/02 02:16:37;;;;;;;1.00;0.77;;;20.40;79.70;;;;;;5016576;28;20445;-86
2023/11/02 02:19:22;;;;;;;1.10;0.80;;;20.30;79.50;;;;;;5016318;28;20449;-86
2023/11/02 02:21:57;;;;;;;1.90;0.80;;;20.30;79.50;;;;;;5016266;28;20528;-86
2023/11/02 02:24:38;;;;;;;1.00;0.77;;;20.40;79.50;;;;;;5016368;28;20456;-86
2023/11/02 02:27:37;;;;;;;1.10;0.87;;;20.30;79.40;;;;;;5016249;28;20446;-96
2023/11/02 02:30:21;;;;;;;1.13;0.80;;;20.40;79.50;;;;;;5015231;28;20483;-86
2023/11/02 02:33:17;;;;;;;1.00;0.70;;;20.30;79.40;;;;;;5016071;28;20790;-86
2023/11/02 02:35:50;;;;;;;1.70;1.00;;;20.30;79.40;;;;;;5015986;28;20913;-86
2023/11/02 02:38:18;;;;;;;1.40;0.90;;;20.30;79.40;;;;;;5015986;28;20452;-86
2023/11/02 02:40:53;;;;;;;1.67;0.80;;;20.30;79.30;;;;;;5015813;28;20541;-86
2023/11/02 02:43:22;;;;;;;0.93;0.70;;;20.30;79.30;;;;;;5015872;28;20464;-86
2023/11/02 02:45:50;;;;;;;2.30;0.70;;;20.30;79.30;;;;;;5015774;28;20442;-86
2023/11/02 02:48:19;;;;;;;1.40;0.80;;;20.30;79.30;;;;;;5015777;28;20476;-86
2023/11/02 02:50:52;;;;;;;1.00;0.70;;;20.30;79.30;;;;;;5015688;28;20443;-96
2023/11/02 02:53:22;;;;;;;1.00;0.70;;;20.30;79.30;;;;;;5015777;28;20431;-86
2023/11/02 02:55:51;;;;;;;1.10;0.80;;;20.30;79.30;;;;;;5015580;28;20478;-86
2023/11/02 02:58:20;;;;;;;1.00;0.70;;;20.30;79.30;;;;;;5015685;28;20435;-86
2023/11/02 03:00:49;;;;;;;1.00;0.77;;;20.30;79.30;;;;;;5015637;28;20523;-86
2023/11/02 03:03:21;;;;;;;1.50;1.00;;;20.30;79.30;;;;;;5015627;28;20519;-86
2023/11/02 03:05:51;;;;;;;1.00;0.70;;;20.30;79.30;;;;;;5015493;28;20438;-86
2023/11/02 03:08:20;;;;;;;1.10;0.70;;;20.30;79.30;;;;;;5015184;28;20449;-86
2023/11/02 03:10:48;;;;;;;1.47;0.83;;;20.30;79.30;;;;;;5015343;28;20442;-86
2023/11/02 03:13:17;;;;;;;1.20;0.70;;;20.30;79.30;;;;;;5048374;28;20480;-86
2023/11/02 03:15:47;;;;;;;1.03;0.80;;;20.30;79.30;;;;;;5054979;28;20850;-86
2023/11/02 03:18:14;;;;;;;1.40;0.80;;;20.30;79.30;;;;;;5055107;28;20441;-95
2023/11/02 03:20:41;;;;;;;1.10;0.73;;;20.30;79.30;;;;;;5054854;28;20527;-86
2023/11/02 03:23:20;;;;;;;1.00;0.70;;;20.30;79.30;;;;;;5054830;28;20440;-86
2023/11/02 03:25:55;;;;;;;1.00;0.70;;;20.30;79.30;;;;;;5055163;28;20524;-86
2023/11/02 03:28:34;;;;;;;1.10;0.67;;;20.30;79.30;;;;;;5054848;28;20454;-86
2023/11/02 03:31:11;;;;;;;1.00;0.70;;;20.30;79.30;;;;;;5054584;28;20440;-86
2023/11/02 03:33:47;;;;;;;1.00;0.70;;;20.30;79.20;;;;;;5054741;28;20440;-86
2023/11/02 03:36:19;;;;;;;1.20;0.77;;;20.30;79.20;;;;;;5054613;28;20437;-86
2023/11/02 03:39:04;;;;;;;1.10;0.73;;;20.30;79.20;;;;;;5054851;28;20913;-86
2023/11/02 03:41:45;;;;;;;1.03;0.73;;;20.30;79.20;;;;;;5054217;28;20439;-95
2023/11/02 03:44:19;;;;;;;1.00;0.70;;;20.40;79.30;;;;;;5054047;28;20521;-86
2023/11/02 03:46:55;;;;;;;1.10;0.70;;;20.30;79.20;;;;;;5054610;28;20437;-86
2023/11/02 03:49:27;;;;;;;1.10;0.70;;;20.40;79.20;;;;;;5054464;28;20491;-95
2023/11/02 03:52:07;;;;;;;1.00;0.80;;;20.40;79.20;;;;;;5054324;28;20440;-86
2023/11/02 03:55:04;;;;;;;1.80;1.00;;;20.30;79.20;;;;;;5054418;28;21010;-86
2023/11/02 03:57:32;;;;;;;1.00;0.80;;;20.30;79.20;;;;;;5054202;28;20528;-86
2023/11/02 04:00:09;;;;;;;1.37;0.70;;;20.30;79.20;;;;;;5053946;28;20433;-86
2023/11/02 04:02:41;;;;;;;1.20;0.90;;;20.30;79.30;;;;;;5054272;28;20444;-86
2023/11/02 04:05:14;;;;;;;1.00;0.70;;;20.30;79.20;;;;;;5054023;28;20444;-86
2023/11/02 04:08:05;;;;;;;1.00;0.80;;;20.40;79.30;;;;;;5053915;28;20434;-86
2023/11/02 04:10:36;;;;;;;1.10;0.73;;;20.30;79.20;;;;;;5053891;28;21015;-86
2023/11/02 04:13:13;;;;;;;1.60;0.87;;;20.30;79.30;;;;;;5053786;28;20481;-86
2023/11/02 04:15:40;;;;;;;1.00;0.80;;;20.30;79.20;;;;;;5053785;28;20468;-86
2023/11/02 04:18:07;;;;;;;1.07;0.80;;;20.30;79.20;;;;;;5053859;28;20437;-86
2023/11/02 04:20:36;;;;;;;1.10;0.80;;;20.30;79.20;;;;;;5053844;28;20794;-86
2023/11/02 04:23:03;;;;;;;1.10;0.80;;;20.30;79.10;;;;;;5053758;28;20529;-86
2023/11/02 04:25:30;;;;;;;1.20;0.80;;;20.30;79.10;;;;;;5053998;28;20527;-86
2023/11/02 04:27:59;;;;;;;1.20;0.80;;;20.30;79.10;;;;;;5053804;28;20441;-86
2023/11/02 04:30:26;;;;;;;1.60;0.70;;;20.30;79.20;;;;;;5053310;28;21021;-86
2023/11/02 04:32:53;;;;;;;1.03;0.77;;;20.30;79.10;;;;;;5053519;28;20444;-86
2023/11/02 04:35:20;;;;;;;1.00;0.70;;;20.30;79.10;;;;;;5053568;28;20441;-86
2023/11/02 04:38:05;;;;;;;1.00;0.70;;;20.30;80.00;;;;;;5053319;28;20440;-86
2023/11/02 04:40:32;;;;;;;1.40;1.00;;;20.30;79.20;;;;;;5053617;28;20772;-86
2023/11/02 04:43:01;;;;;;;1.10;0.80;;;20.30;79.20;;;;;;5053369;28;21010;-86
2023/11/02 04:45:28;;;;;;;1.10;0.80;;;20.30;79.10;;;;;;5053402;28;20954;-87
2023/11/02 04:47:55;;;;;;;1.17;0.70;;;20.30;79.10;;;;;;5053360;28;20440;-86
2023/11/02 04:50:22;;;;;;;1.10;0.80;;;20.30;79.10;;;;;;5053229;28;20998;-86
2023/11/02 04:52:50;;;;;;;1.30;0.70;;;20.30;79.10;;;;;;5053268;28;20437;-86
2023/11/02 04:55:17;;;;;;;1.13;0.77;;;20.30;79.10;;;;;;5053146;28;20561;-86
2023/11/02 04:57:44;;;;;;;1.00;0.60;;;20.30;79.10;;;;;;5053246;28;20429;-95
2023/11/02 05:00:13;;;;;;;1.20;0.80;;;20.30;79.00;;;;;;5053176;28;20432;-86
2023/11/02 05:02:41;;;;;;;1.50;0.70;;;20.30;79.10;;;;;;5053205;28;20923;-86
2023/11/02 05:05:09;;;;;;;1.03;0.80;;;20.30;79.00;;;;;;5053184;28;20490;-86
2023/11/02 05:07:36;;;;;;;1.70;0.90;;;20.30;79.00;;;;;;5053128;28;20435;-86
2023/11/02 05:10:03;;;;;;;1.03;0.70;;;20.30;79.00;;;;;;5052875;28;20507;-86
2023/11/02 05:12:30;;;;;;;2.00;0.90;;;20.20;78.90;;;;;;5052735;28;20475;-86
2023/11/02 05:14:57;;;;;;;1.20;0.87;;;20.20;78.80;;;;;;5053038;28;20443;-95
2023/11/02 05:17:25;;;;;;;1.67;0.70;;;20.30;79.00;;;;;;5052848;28;20435;-86
2023/11/02 05:19:52;;;;;;;1.10;0.80;;;20.30;78.90;;;;;;5053060;28;20444;-86
2023/11/02 05:22:19;;;;;;;1.07;0.73;;;20.30;78.90;;;;;;5052830;28;20442;-86
2023/11/02 05:24:45;;;;;;;1.10;0.70;;;20.20;78.90;;;;;;5052983;28;20489;-86
2023/11/02 05:27:12;;;;;;;1.10;0.80;;;20.40;79.20;;;;;;5052833;28;20436;-86
2023/11/02 05:29:39;;;;;;;1.30;0.90;;;20.30;79.00;;;;;;5052736;28;20574;-86
2023/11/02 05:32:06;;;;;;;1.10;0.80;;;20.20;78.80;;;;;;5052840;28;20526;-86
2023/11/02 05:34:34;;;;;;;1.33;0.90;;;20.30;79.00;;;;;;5052841;28;20444;-86
2023/11/02 05:37:01;;;;;;;1.00;0.70;;;20.20;78.70;;;;;;5052679;28;20436;-86
2023/11/02 05:39:28;;;;;;;1.10;0.73;;;20.30;78.80;;;;;;5052905;28;20441;-86
2023/11/02 05:41:54;;;;;;;1.10;0.80;;;20.20;78.70;;;;;;5052744;28;20447;-86
2023/11/02 05:44:21;;;;;;;1.10;0.80;;;20.30;78.80;;;;;;5052688;28;20491;-86
2023/11/02 05:46:48;;;;;;;0.90;0.60;;;20.30;78.80;;;;;;5052582;28;20803;-86
2023/11/02 05:49:15;;;;;;;1.43;0.73;;;20.20;78.60;;;;;;5052569;28;20484;-86
2023/11/02 05:51:43;;;;;;;1.00;0.77;;;20.20;78.60;;;;;;5052550;28;20433;-86
2023/11/02 05:54:10;;;;;;;1.20;0.80;;;20.20;78.60;;;;;;5052698;28;20801;-86
2023/11/02 05:56:37;;;;;;;1.10;0.70;;;20.30;78.70;;;;;;5052685;28;20800;-86
2023/11/02 05:59:05;;;;;;;1.20;0.80;;;20.20;78.60;;;;;;5052846;28;20529;-86
2023/11/02 06:01:32;;;;;;;1.13;0.70;;;20.20;78.60;;;;;;5052824;28;20455;-86
2023/11/02 06:03:59;;;;;;;1.00;0.70;;;20.30;78.70;;;;;;5052715;28;20532;-86
2023/11/02 06:06:25;;;;;;;2.67;0.80;;;20.20;78.60;;;;;;5054656;28;20838;-86
2023/11/02 06:08:54;;;;;;;1.30;0.70;;;20.20;78.60;;;;;;5056241;28;20436;-86
2023/11/02 06:11:20;;;;;;;1.50;0.80;;;20.20;78.60;;;;;;5055965;28;20484;-87
2023/11/02 06:13:48;;;;;;;1.13;0.90;;;20.30;78.80;;;;;;5056127;28;20461;-86
2023/11/02 06:16:15;;;;;;;1.10;0.63;;;20.20;78.60;;;;;;5055985;28;20448;-86
2023/11/02 06:18:42;;;;;;;1.20;0.80;;;20.20;78.60;;;;;;5056202;28;20470;-86
2023/11/02 06:21:09;;;;;;;1.03;0.80;;;20.30;78.70;;;;;;5056168;28;20448;-86
2023/11/02 06:23:36;;;;;;;1.00;0.70;;;20.20;78.50;;;;;;5055870;28;20446;-86
2023/11/02 06:26:05;;;;;;;1.27;0.80;;;20.20;78.60;;;;;;5056076;28;20442;-86
2023/11/02 06:28:32;;;;;;;0.93;0.70;;;20.20;78.50;;;;;;5055767;28;20440;-86
2023/11/02 06:30:59;;;;;;;1.00;0.70;;;20.20;78.60;;;;;;5055807;28;20484;-86
2023/11/02 06:33:28;;;;;;;1.47;0.97;;;20.20;78.50;;;;;;5056309;28;20452;-95
2023/11/02 06:35:56;;;;;;;1.00;0.70;;;20.30;78.60;;;;;;5056055;28;20441;-86
2023/11/02 06:38:24;;;;;;;1.03;0.80;;;20.20;78.50;;;;;;5056108;28;20490;-95
2023/11/02 06:40:51;;;;;;;1.20;0.90;;;20.20;78.60;;;;;;5056219;28;20515;-86
2023/11/02 06:43:19;;;;;;;1.60;1.00;;;20.20;78.50;;;;;;5055661;28;20498;-86
2023/11/02 06:45:46;;;;;;;1.53;0.97;;;20.20;78.50;;;;;;5055701;28;20924;-86
2023/11/02 06:48:12;;;;;;;1.20;0.70;;;20.20;79.40;;;;;;5055578;28;20936;-86
2023/11/02 06:50:39;;;;;;;1.00;0.70;;;20.20;78.50;;;;;;5055436;28;20503;-86
2023/11/02 06:53:06;;;;;;;0.90;0.60;;;20.20;78.60;;;;;;5055583;28;20632;-87
2023/11/02 06:55:34;;;;;;;1.00;0.80;;;20.30;78.60;;;;;;5055502;28;20436;-95
2023/11/02 06:58:00;;;;;;;1.17;0.90;;;20.20;78.50;;;;;;5055375;28;20445;-86
2023/11/02 07:00:28;;;;;;;1.93;0.90;;;20.20;78.50;;;;;;5055700;28;20447;-95
2023/11/02 07:02:55;;;;;;;1.10;0.90;;;20.20;78.50;;;;;;5055308;28;20531;-86
2023/11/02 07:05:23;;;;;;;1.30;0.90;;;20.20;78.60;;;;;;5055107;28;20434;-86
2023/11/02 07:07:50;;;;;;;1.20;0.70;;;20.20;78.50;;;;;;5055414;28;20439;-86
2023/11/02 07:10:19;;;;;;;1.30;0.70;;;20.20;78.50;;;;;;5054989;28;20500;-86
2023/11/02 07:12:45;;;;;;;1.00;0.70;;;20.20;78.50;;;;;;5054709;28;20575;-86
2023/11/02 07:15:13;;;;;;;1.10;0.70;;;20.20;78.50;;;;;;5055067;28;20799;-86
2023/11/02 07:17:41;;;;;;;1.10;0.80;;;20.20;78.50;;;;;;5054570;28;20532;-86
2023/11/02 07:20:09;;;;;;;1.27;0.80;;;20.20;78.50;;;;;;5054867;28;20936;-86
2023/11/02 07:22:36;;;;;;;1.10;0.77;;;20.20;78.50;;;;;;5054856;28;20439;-86
2023/11/02 07:25:03;;;;;;;1.33;0.77;;;20.20;78.50;;;;;;5054681;28;20999;-86
2023/11/02 07:27:31;;;;;;;1.47;0.80;;;20.20;78.50;;;;;;5054732;28;20441;-86
2023/11/02 07:29:59;;;;;;;1.43;0.70;;;20.20;79.30;;;;;;5054518;28;20538;-86
2023/11/02 07:32:25;;;;;;;1.00;0.70;;;20.20;78.50;;;;;;5054571;28;20452;-86
2023/11/02 07:34:53;;;;;;;1.07;0.67;;;20.20;78.50;;;;;;5054634;28;20535;-86
2023/11/02 07:37:20;;;;;;;1.43;0.70;;;20.30;78.60;;;;;;5054496;28;20436;-86
2023/11/02 07:39:47;;;;;;;1.77;0.80;;;20.20;78.50;;;;;;5054322;28;20432;-86
2023/11/02 07:42:14;;;;;;;1.30;0.80;;;20.20;78.50;;;;;;5054513;28;20432;-86
2023/11/02 07:44:42;;;;;;;1.10;0.80;;;20.20;78.50;;;;;;5054257;28;20932;-86
2023/11/02 07:47:09;;;;;;;1.20;0.70;;;20.20;78.50;;;;;;5054294;28;20498;-86
2023/11/02 07:49:37;;;;;;;1.20;0.83;;;20.20;78.50;;;;;;5054184;28;20441;-86
2023/11/02 07:52:07;;;;;;;1.13;1.03;;;20.30;78.60;;;;;;5054263;28;20475;-86
2023/11/02 07:54:36;;;;;;;1.60;0.70;;;20.20;78.50;;;;;;5054111;28;20437;-86
2023/11/02 07:57:07;;;;;;;1.37;0.70;;;20.20;78.50;;;;;;5053925;28;20931;-86
2023/11/02 07:59:34;;;;;;;1.10;0.80;;;20.20;78.50;;;;;;5054171;28;20448;-86
2023/11/02 08:02:02;;;;;;;1.00;0.70;;;20.20;78.50;;;;;;5054121;28;20444;-86
2023/11/02 08:04:28;;;;;;;1.00;0.70;;;20.20;78.50;;;;;;5054114;28;20475;-86
2023/11/02 08:06:56;;;;;;;1.30;0.93;;;20.20;78.50;;;;;;5053986;28;20447;-86
2023/11/02 08:09:24;;;;;;;1.00;0.80;;;20.20;78.50;;;;;;5053903;28;20433;-86
2023/11/02 08:11:50;;;;;;;1.20;0.87;;;20.20;78.50;;;;;;5053570;28;20498;-86
2023/11/02 08:14:18;;;;;;;1.00;0.80;;;20.20;78.40;;;;;;5053666;28;20553;-86
2023/11/02 08:16:46;;;;;;;1.00;0.70;;;20.30;78.50;;;;;;5053735;28;20497;-86
2023/11/02 08:19:13;;;;;;;4.13;0.90;;;20.20;78.40;;;;;;5053994;28;20862;-86
2023/11/02 08:21:40;;;;;;;1.40;0.73;;;20.20;78.50;;;;;;5053734;28;20447;-86
2023/11/02 08:24:07;;;;;;;1.20;0.87;;;20.30;78.60;;;;;;5053621;28;20451;-86
2023/11/02 08:26:36;;;;;;;1.00;0.70;;;20.30;78.60;;;;;;5053627;28;20943;-86
2023/11/02 08:29:04;;;;;;;1.07;0.80;;;20.30;78.60;;;;;;5053122;28;20448;-86
2023/11/02 08:31:32;;;;;;;1.43;0.70;;;20.30;78.60;;;;;;5053514;28;20483;-86
2023/11/02 08:33:59;;;;;;;1.77;0.90;;;20.20;78.50;;;;;;5053571;28;20443;-86
2023/11/02 08:36:27;;;;;;;1.20;0.70;;;20.30;78.60;;;;;;5053406;28;20475;-87
2023/11/02 08:38:54;;;;;;;1.60;0.90;;;20.20;78.40;;;;;;5053439;28;20449;-86
2023/11/02 08:41:22;;;;;;;1.73;0.73;;;20.20;79.20;;;;;;5053524;28;20445;-86
2023/11/02 08:43:50;;;;;;;1.37;0.70;;;20.20;78.50;;;;;;5053278;28;20458;-86
2023/11/02 08:46:18;;;;;;;0.97;0.70;;;20.30;78.60;;;;;;5053443;28;20960;-86
2023/11/02 08:48:46;;;;;;;1.50;0.70;;;20.30;78.60;;;;;;5053261;28;20463;-87
2023/11/02 08:51:15;;;;;;;1.40;0.80;;;20.30;78.50;;;;;;5053235;28;20481;-86
2023/11/02 08:53:42;;;;;;;1.00;0.70;;;20.30;78.50;;;;;;5053208;28;20433;-87
2023/11/02 08:56:09;;;;;;;1.10;0.70;;;20.30;78.60;;;;;;5053043;28;20445;-86
2023/11/02 08:58:41;;;;;;;1.37;0.90;;;20.30;78.60;;;;;;5053196;28;20510;-86
2023/11/02 09:01:11;;;;;;;1.20;0.80;;;20.30;78.50;;;;;;5053093;28;20439;-86
2023/11/02 09:03:38;;;;;;;0.90;0.60;;;20.30;78.40;;;;;;5053443;28;20448;-86
2023/11/02 09:06:06;;;;;;;1.00;0.70;;;20.30;78.40;;;;;;5053091;28;20476;-86
2023/11/02 09:08:33;;;;;;;1.43;0.77;;;20.30;78.40;;;;;;5053091;28;20447;-86
2023/11/02 09:11:00;;;;;;;1.00;0.70;;;20.30;78.30;;;;;;5053028;28;20480;-86
2023/11/02 09:13:27;;;;;;;1.10;0.80;;;20.30;78.40;;;;;;5052654;28;21002;-86
2023/11/02 09:15:54;;;;;;;1.00;0.70;;;20.30;78.50;;;;;;5052899;28;20444;-86
2023/11/02 09:18:22;;;;;;;0.90;0.70;;;20.30;78.50;;;;;;5052837;28;20447;-86
2023/11/02 09:20:50;;;;;;;0.90;0.60;;;20.30;78.40;;;;;;5052962;28;20437;-86
2023/11/02 09:23:17;;;;;;;1.10;0.70;;;20.30;78.50;;;;;;5052916;28;20434;-86
2023/11/02 09:25:45;;;;;;;1.10;0.70;;;20.30;78.50;;;;;;5052934;28;20437;-86
2023/11/02 09:28:14;;;;;;;1.00;0.70;;;20.40;78.60;;;;;;5052975;28;20448;-86
2023/11/02 09:30:43;;;;;;;0.90;0.60;;;20.20;78.40;;;;;;5052789;28;20514;-86
2023/11/02 09:33:10;;;;;;;1.83;0.70;;;20.30;78.40;;;;;;5052814;28;20437;-86
2023/11/02 09:35:38;;;;;;;2.13;0.90;;;20.30;78.40;;;;;;5052687;28;20448;-86
2023/11/02 09:38:05;;;;;;;0.97;0.70;;;20.30;78.40;;;;;;5052818;28;20433;-87
2023/11/02 09:40:32;;;;;;;1.10;0.80;;;20.30;78.30;;;;;;5055129;28;20437;-86
2023/11/02 09:43:02;;;;;;;0.97;0.67;;;20.30;78.40;;;;;;5056640;28;20546;-87
2023/11/02 09:45:29;;;;;;;1.00;0.70;;;20.40;78.60;;;;;;5056777;28;20467;-86
2023/11/02 09:47:57;;;;;;;1.20;1.10;;;20.40;78.40;;;;;;5056728;28;20447;-95
2023/11/02 09:50:24;;;;;;;1.00;0.60;;;20.40;78.60;;;;;;5056454;28;20436;-86
2023/11/02 09:52:54;;;;;;;0.90;0.70;;;20.40;78.60;;;;;;5056539;28;20443;-86
2023/11/02 09:55:21;;;;;;;1.10;0.70;;;20.40;78.50;;;;;;5056668;28;20453;-86
2023/11/02 09:57:49;;;;;;;1.00;0.60;;;20.40;78.60;;;;;;5056538;28;20511;-86
2023/11/02 10:00:17;;;;;;;1.20;0.70;;;20.40;79.50;;;;;;5056425;28;20444;-87
2023/11/02 10:02:47;;;;;;;1.00;0.70;;;20.40;78.80;;;;;;5056626;28;20939;-86
2023/11/02 10:05:14;;;;;;;0.90;0.60;;;20.50;78.80;;;;;;5056444;28;20426;-86
2023/11/02 10:07:41;;;;;;;1.10;0.70;;;20.40;78.80;;;;;;5056390;28;20440;-86
2023/11/02 10:10:11;;;;;;;1.10;0.70;;;20.50;78.80;;;;;;5056133;28;20436;-86
2023/11/02 10:12:38;;;;;;;1.20;0.80;;;20.40;79.00;;;;;;5055731;28;21020;-86
2023/11/02 10:15:05;;;;;;;1.00;0.70;;;20.40;79.00;;;;;;5056203;28;20440;-86
2023/11/02 10:17:36;;;;;;;1.00;0.60;;;20.40;79.10;;;;;;5056014;28;20448;-86
2023/11/02 10:20:08;;;;;;;1.43;0.70;;;20.40;79.10;;;;;;5056046;28;20444;-86
2023/11/02 10:22:35;;;;;;;1.80;0.80;;;20.40;78.80;;;;;;5056075;28;20493;-87
2023/11/02 10:25:03;;;;;;;1.00;0.70;;;20.40;78.90;;;;;;5055972;28;20999;-86
2023/11/02 10:27:31;;;;;;;1.10;0.80;;;20.40;79.10;;;;;;5055822;28;20465;-86
2023/11/02 10:29:58;;;;;;;0.90;0.60;;;20.40;79.10;;;;;;5055821;28;20476;-86
2023/11/02 10:32:25;;;;;;;1.00;0.70;;;20.40;79.00;;;;;;5055751;28;20492;-86
2023/11/02 10:34:52;;;;;;;0.90;0.60;;;20.40;79.00;;;;;;5055952;28;20431;-86
2023/11/02 10:37:31;;;;;;;1.00;0.70;;;20.40;79.20;;;;;;5055642;28;20433;-87
2023/11/02 10:39:57;;;;;;;1.10;0.60;;;20.40;79.30;;;;;;5055642;28;20433;-86
2023/11/02 10:42:26;;;;;;;2.10;0.80;;;20.40;79.20;;;;;;5055645;28;20447;-86
2023/11/02 10:44:54;;;;;;;0.97;0.70;;;20.40;79.00;;;;;;5055623;28;20436;-88
2023/11/02 10:47:26;;;;;;;1.10;0.70;;;20.40;79.20;;;;;;5055564;28;20444;-90
2023/11/02 10:49:55;;;;;;;1.00;0.60;;;20.40;79.10;;;;;;5055533;28;20449;-86
2023/11/02 10:52:29;;;;;;;1.30;0.80;;;20.40;79.10;;;;;;5054895;28;21056;-87
2023/11/02 10:55:07;;;;;;;1.07;0.70;;;20.40;79.00;;;;;;5055331;28;20443;-93
2023/11/02 10:57:36;;;;;;;1.00;0.60;;;20.40;78.90;;;;;;5055500;28;20444;-86
2023/11/02 11:00:05;;;;;;;1.30;0.70;;;20.40;78.90;;;;;;5055201;28;20445;-86
2023/11/02 11:02:32;;;;;;;1.00;0.70;;;20.40;79.00;;;;;;5055298;28;20457;-86
2023/11/02 11:05:00;;;;;;;1.00;0.80;;;20.40;78.90;;;;;;5055152;28;20827;-88
2023/11/02 11:07:27;;;;;;;1.10;0.90;;;20.50;79.00;;;;;;5055142;28;20445;-87
2023/11/02 11:09:54;;;;;;;1.00;0.70;;;20.40;79.00;;;;;;5055174;28;20441;-87
2023/11/02 11:12:22;;;;;;;0.90;0.70;;;20.40;78.90;;;;;;5054773;28;20495;-87
2023/11/02 11:14:50;;;;;;;1.07;0.80;;;20.40;78.70;;;;;;5054982;28;20443;-87
2023/11/02 11:17:18;;;;;;;1.00;0.60;;;20.40;78.60;;;;;;5054901;28;20439;-86
2023/11/02 11:19:45;;;;;;;1.10;0.70;;;20.40;78.70;;;;;;5054862;28;20859;-86
2023/11/02 11:22:16;;;;;;;1.83;0.90;;;20.40;78.90;;;;;;5054913;28;20794;-87
2023/11/02 11:24:44;;;;;;;1.00;0.63;;;20.40;78.90;;;;;;5054964;28;20445;-86
2023/11/02 11:27:11;;;;;;;1.80;1.07;;;20.30;78.70;;;;;;5054949;28;20776;-87
2023/11/02 11:29:39;;;;;;;1.97;0.70;;;20.40;78.90;;;;;;5054691;28;20488;-86
2023/11/02 11:32:08;;;;;;;0.97;0.60;;;20.40;78.80;;;;;;5054628;28;20837;-86
2023/11/02 11:35:06;;;;;;;1.20;0.70;;;20.30;78.80;;;;;;5054708;28;20442;-86
2023/11/02 11:37:35;;;;;;;1.20;0.70;;;20.40;78.90;;;;;;5053383;28;20441;-86
2023/11/02 11:40:05;;;;;;;0.97;0.60;;;20.40;78.90;;;;;;5054480;28;20504;-86
2023/11/02 11:43:00;;;;;;;1.20;1.00;;;20.50;79.00;;;;;;5054524;28;20457;-86
2023/11/02 11:45:30;;;;;;;1.00;0.60;;;20.40;79.00;;;;;;5054499;28;20480;-86
2023/11/02 11:47:57;;;;;;;1.20;0.70;;;20.40;79.00;;;;;;5054379;28;20928;-86
2023/11/02 11:50:36;;;;;;;1.00;0.73;;;20.50;79.20;;;;;;5054486;28;20439;-87
2023/11/02 11:53:10;;;;;;;1.10;0.60;;;20.50;79.20;;;;;;5054347;28;20492;-86
2023/11/02 11:55:38;;;;;;;1.90;0.80;;;20.60;79.20;;;;;;5054307;28;20436;-87
2023/11/02 11:58:08;;;;;;;1.00;0.70;;;20.50;79.00;;;;;;5054143;28;20440;-87
2023/11/02 12:00:36;;;;;;;1.10;0.80;;;20.50;79.00;;;;;;5054252;28;20439;-87
2023/11/02 12:03:06;;;;;;;1.00;0.70;;;20.60;79.10;;;;;;5053127;28;20437;-86
2023/11/02 12:05:56;;;;;;;1.40;0.80;;;20.50;78.90;;;;;;5054017;28;20441;-87
2023/11/02 12:08:24;;;;;;;1.00;0.60;;;20.50;79.10;;;;;;5054136;28;20519;-87
2023/11/02 12:10:53;;;;;;;1.50;0.77;;;20.50;79.00;;;;;;5053992;28;20440;-87
2023/11/02 12:13:20;;;;;;;1.40;0.70;;;20.50;79.00;;;;;;5053662;28;20557;-87
2023/11/02 12:15:58;;;;;;;1.10;0.60;;;20.60;79.10;;;;;;5053767;28;20883;-87
2023/11/02 12:18:28;;;;;;;3.00;0.80;;;20.60;79.10;;;;;;5053939;28;20499;-87
2023/11/02 12:20:57;;;;;;;1.00;0.70;;;20.60;79.00;;;;;;5053830;28;20444;-87
2023/11/02 12:23:31;;;;;;;1.17;0.70;;;20.60;79.00;;;;;;5053907;28;20463;-87
2023/11/02 12:25:58;;;;;;;1.00;0.70;;;20.60;79.00;;;;;;5053800;28;20440;-86
2023/11/02 12:28:25;;;;;;;1.10;0.70;;;20.60;79.00;;;;;;5053627;28;20448;-86
2023/11/02 12:30:52;;;;;;;1.10;0.73;;;20.60;79.00;;;;;;5053570;28;20452;-87
2023/11/02 12:33:22;;;;;;;1.23;0.73;;;20.60;79.00;;;;;;5053528;28;21094;-86
2023/11/02 12:35:54;;;;;;;1.00;0.70;;;20.60;79.00;;;;;;5053373;28;20444;-86
2023/11/02 12:38:35;;;;;;;1.40;0.90;;;20.60;79.00;;;;;;5053460;28;20433;-86
2023/11/02 12:41:05;;;;;;;1.30;0.87;;;20.60;79.00;;;;;;5053534;28;20445;-87
2023/11/02 12:43:34;;;;;;;1.20;0.70;;;20.60;79.00;;;;;;5053273;28;20460;-86
2023/11/02 12:46:06;;;;;;;1.10;0.77;;;20.60;79.00;;;;;;5053365;28;20950;-87
2023/11/02 12:48:36;;;;;;;1.20;0.80;;;20.60;79.10;;;;;;5053250;28;20445;-86
2023/11/02 12:51:14;;;;;;;0.90;0.67;;;20.60;79.10;;;;;;5053236;28;20520;-87
2023/11/02 12:53:43;;;;;;;1.40;0.70;;;20.60;79.20;;;;;;5053226;28;20434;-87
2023/11/02 12:56:11;;;;;;;1.00;0.60;;;20.60;79.10;;;;;;5053607;28;20460;-91
2023/11/02 12:58:39;;;;;;;1.00;0.80;;;20.60;79.10;;;;;;5053648;28;20433;-87
2023/11/02 13:01:06;;;;;;;1.60;0.80;;;20.60;79.10;;;;;;5053149;28;20447;-88
2023/11/02 13:03:33;;;;;;;1.20;0.80;;;20.60;79.00;;;;;;5053492;28;20469;-87
2023/11/02 13:06:00;;;;;;;1.00;0.70;;;20.60;79.00;;;;;;5053558;28;20793;-87